Time;durP1;ratioP1;P1;durP2;ratioP2;P2;SDS_P1;SDS_P2;PMS_P1;PMS_P2;Temp;Humidity;BMP_temperature;BMP_pressure;BME280_temperature;BME280_humidity;BME280_pressure;Samples;Min_cycle;Max_cycle;Signal;HPM_P1;HPM_P2
2022/03/04 00:00:22;;;;;;;10.05;5.65;;;21.00;67.40;;;;;;7838335;28;20739;-45
2022/03/04 00:04:09;;;;;;;9.82;5.78;;;20.90;67.30;;;;;;7837418;28;20256;-45
2022/03/04 00:07:54;;;;;;;11.02;6.45;;;20.90;67.30;;;;;;7838443;28;20747;-45
2022/03/04 00:11:40;;;;;;;9.75;5.85;;;20.90;67.20;;;;;;7837839;28;20568;-45
2022/03/04 00:15:25;;;;;;;8.90;5.88;;;20.80;67.20;;;;;;7838161;28;20229;-46
2022/03/04 00:19:11;;;;;;;8.80;5.70;;;20.70;67.20;;;;;;7837851;28;20185;-48
2022/03/04 00:22:57;;;;;;;10.60;6.18;;;20.80;67.10;;;;;;7837873;28;20328;-46
2022/03/04 00:26:43;;;;;;;11.57;6.22;;;20.70;67.10;;;;;;7837879;28;20248;-45
2022/03/04 00:30:28;;;;;;;9.50;6.20;;;20.70;67.10;;;;;;7837695;28;20170;-45
2022/03/04 00:34:14;;;;;;;8.70;6.07;;;20.70;67.10;;;;;;7837875;28;20185;-46
2022/03/04 00:38:00;;;;;;;10.70;6.50;;;20.60;67.10;;;;;;7837832;28;20269;-46
2022/03/04 00:41:45;;;;;;;9.43;5.78;;;20.60;67.00;;;;;;7837441;28;20206;-47
2022/03/04 00:45:31;;;;;;;11.45;6.25;;;20.60;67.00;;;;;;7837616;28;20687;-45
2022/03/04 00:49:16;;;;;;;8.68;5.65;;;20.60;67.90;;;;;;7837391;28;20185;-46
2022/03/04 00:53:02;;;;;;;8.23;5.65;;;20.50;66.90;;;;;;7837491;28;20664;-44
2022/03/04 00:56:49;;;;;;;8.27;5.70;;;20.50;66.90;;;;;;7837838;28;20210;-46
2022/03/04 01:00:36;;;;;;;10.40;6.03;;;20.50;66.80;;;;;;7837302;28;20235;-45
2022/03/04 01:04:21;;;;;;;10.95;6.13;;;20.40;66.90;;;;;;7837473;28;20197;-46
2022/03/04 01:08:07;;;;;;;7.80;5.50;;;20.40;66.80;;;;;;7837667;28;20214;-47
2022/03/04 01:11:53;;;;;;;10.68;6.43;;;20.30;66.70;;;;;;7837131;28;20202;-47
2022/03/04 01:15:47;;;;;;;9.60;6.10;;;20.30;66.80;;;;;;7841536;28;20181;-45
2022/03/04 01:19:32;;;;;;;13.40;6.95;;;20.30;66.70;;;;;;7842177;28;20647;-44
2022/03/04 01:23:18;;;;;;;12.45;6.25;;;20.20;66.80;;;;;;7842808;28;20264;-45
2022/03/04 01:27:04;;;;;;;10.45;6.28;;;20.20;66.80;;;;;;7842713;28;20230;-44
2022/03/04 01:30:49;;;;;;;9.50;5.65;;;20.20;66.70;;;;;;7842440;28;20277;-45
2022/03/04 01:34:35;;;;;;;10.68;6.22;;;20.20;66.70;;;;;;7842641;28;20260;-45
2022/03/04 01:38:20;;;;;;;9.15;5.90;;;20.10;66.60;;;;;;7842411;28;20170;-45
2022/03/04 01:42:06;;;;;;;9.35;6.15;;;20.10;66.50;;;;;;7842059;28;20190;-45
2022/03/04 01:45:52;;;;;;;11.70;6.35;;;20.10;66.50;;;;;;7842122;28;20248;-45
2022/03/04 01:49:41;;;;;;;9.60;6.20;;;20.10;66.60;;;;;;7842041;28;20644;-47
2022/03/04 01:53:26;;;;;;;10.10;6.00;;;20.00;66.50;;;;;;7842074;28;20198;-45
2022/03/04 01:57:12;;;;;;;10.25;6.03;;;20.00;66.50;;;;;;7842576;28;20186;-45
2022/03/04 02:00:58;;;;;;;11.32;6.53;;;20.00;66.50;;;;;;7841408;28;20208;-45
2022/03/04 02:04:43;;;;;;;9.13;5.82;;;20.00;66.50;;;;;;7841600;28;20236;-45
2022/03/04 02:08:29;;;;;;;9.05;5.97;;;19.90;66.40;;;;;;7841507;28;20567;-45
2022/03/04 02:12:14;;;;;;;9.32;6.07;;;19.90;66.40;;;;;;7841323;28;20690;-45
2022/03/04 02:16:00;;;;;;;9.68;6.40;;;19.90;66.40;;;;;;7841446;28;20182;-45
2022/03/04 02:19:52;;;;;;;8.90;6.30;;;19.90;66.40;;;;;;7841149;28;20760;-46
2022/03/04 02:23:37;;;;;;;9.73;6.18;;;19.80;66.40;;;;;;7841202;28;20217;-46
2022/03/04 02:27:23;;;;;;;11.13;5.72;;;19.80;66.40;;;;;;7840608;28;20213;-45
2022/03/04 02:31:08;;;;;;;9.65;6.72;;;19.80;66.40;;;;;;7841193;28;20236;-46
2022/03/04 02:34:54;;;;;;;9.50;6.10;;;19.80;66.40;;;;;;7841493;28;20178;-45
2022/03/04 02:38:39;;;;;;;9.23;5.88;;;19.70;66.40;;;;;;7841224;28;20275;-45
2022/03/04 02:42:25;;;;;;;9.02;5.75;;;19.80;66.30;;;;;;7840739;28;20198;-46
2022/03/04 02:46:10;;;;;;;9.93;6.07;;;19.70;66.30;;;;;;7840642;28;20217;-46
2022/03/04 02:49:56;;;;;;;9.80;6.35;;;19.70;66.30;;;;;;7840347;28;20590;-46
2022/03/04 02:53:41;;;;;;;9.90;6.40;;;19.70;66.20;;;;;;7840347;28;20198;-47
2022/03/04 02:57:27;;;;;;;10.55;6.22;;;19.60;66.20;;;;;;7840206;28;20207;-47
2022/03/04 03:01:12;;;;;;;9.18;6.30;;;19.60;66.20;;;;;;7839712;28;20210;-45
2022/03/04 03:04:58;;;;;;;9.82;6.15;;;19.60;66.20;;;;;;7839909;28;20197;-45
2022/03/04 03:08:43;;;;;;;9.60;6.47;;;19.60;66.20;;;;;;7839777;28;20170;-46
2022/03/04 03:12:29;;;;;;;9.05;6.32;;;19.60;66.20;;;;;;7839686;28;20205;-45
2022/03/04 03:16:15;;;;;;;11.57;6.03;;;19.60;66.30;;;;;;7839588;28;20174;-46
2022/03/04 03:20:02;;;;;;;8.75;5.63;;;19.50;66.20;;;;;;7839138;28;20182;-45
2022/03/04 03:23:47;;;;;;;9.38;6.25;;;19.50;66.20;;;;;;7839374;28;20247;-45
2022/03/04 03:27:34;;;;;;;9.70;6.25;;;19.50;66.20;;;;;;7839170;28;20202;-47
2022/03/04 03:31:19;;;;;;;9.18;6.45;;;19.50;66.20;;;;;;7838787;28;20698;-47
2022/03/04 03:35:07;;;;;;;10.80;6.15;;;19.50;66.20;;;;;;7838979;28;20547;-46
2022/03/04 03:38:53;;;;;;;9.50;6.05;;;19.50;66.20;;;;;;7838904;28;20238;-45
2022/03/04 03:42:39;;;;;;;7.68;5.60;;;19.40;66.10;;;;;;7838494;28;20197;-45
2022/03/04 03:46:25;;;;;;;9.45;6.25;;;19.40;66.10;;;;;;7838653;28;20201;-44
2022/03/04 03:50:11;;;;;;;11.52;6.32;;;19.40;66.10;;;;;;7838375;28;20628;-45
2022/03/04 03:53:57;;;;;;;8.82;6.00;;;19.40;66.20;;;;;;7838514;28;20591;-45
2022/03/04 03:57:42;;;;;;;9.70;5.88;;;19.40;66.10;;;;;;7838602;28;20178;-46
2022/03/04 04:01:28;;;;;;;9.90;6.63;;;19.40;66.20;;;;;;7838021;28;20206;-45
2022/03/04 04:05:13;;;;;;;10.57;6.80;;;19.40;66.10;;;;;;7838259;28;20209;-44
2022/03/04 04:09:00;;;;;;;10.07;6.55;;;19.30;66.10;;;;;;7838954;28;20189;-48
2022/03/04 04:12:46;;;;;;;11.77;6.85;;;19.40;66.00;;;;;;7838409;28;20194;-44
2022/03/04 04:16:32;;;;;;;10.45;6.10;;;19.40;66.00;;;;;;7838246;28;20180;-47
2022/03/04 04:20:17;;;;;;;9.32;5.82;;;19.40;66.00;;;;;;7837779;28;20239;-46
2022/03/04 04:24:03;;;;;;;9.43;6.53;;;19.30;65.90;;;;;;7838078;28;20604;-45
2022/03/04 04:27:49;;;;;;;11.13;6.45;;;19.30;65.90;;;;;;7838195;28;20217;-44
2022/03/04 04:31:35;;;;;;;10.65;6.85;;;19.40;65.90;;;;;;7837771;28;20264;-45
2022/03/04 04:35:21;;;;;;;10.07;6.10;;;19.30;65.80;;;;;;7837861;28;20174;-45
2022/03/04 04:39:06;;;;;;;10.85;6.80;;;19.30;65.80;;;;;;7836054;28;20304;-45
2022/03/04 04:42:52;;;;;;;11.35;6.70;;;19.30;65.80;;;;;;7835503;28;20681;-47
2022/03/04 04:46:37;;;;;;;11.40;6.45;;;19.30;65.80;;;;;;7835572;28;20218;-44
2022/03/04 04:50:23;;;;;;;10.50;6.65;;;19.30;65.60;;;;;;7839386;28;20170;-46
2022/03/04 04:54:08;;;;;;;10.98;6.30;;;19.30;65.60;;;;;;7841880;28;20711;-46
2022/03/04 04:57:54;;;;;;;12.75;6.82;;;19.30;65.60;;;;;;7841769;28;20249;-45
2022/03/04 05:01:40;;;;;;;14.52;6.78;;;19.30;65.50;;;;;;7841543;28;20213;-45
2022/03/04 05:05:25;;;;;;;10.38;6.63;;;19.40;65.50;;;;;;7841933;28;20194;-43
2022/03/04 05:09:11;;;;;;;11.35;6.90;;;19.30;65.50;;;;;;7841860;28;20192;-48
2022/03/04 05:12:56;;;;;;;12.70;6.82;;;19.40;65.50;;;;;;7842298;28;20194;-46
2022/03/04 05:16:42;;;;;;;11.45;6.18;;;19.30;65.30;;;;;;7841911;28;20206;-45
2022/03/04 05:20:27;;;;;;;10.48;6.60;;;19.40;65.50;;;;;;7841841;28;20174;-45
2022/03/04 05:24:13;;;;;;;9.48;6.35;;;19.30;65.40;;;;;;7842649;28;20189;-45
2022/03/04 05:27:58;;;;;;;12.82;6.53;;;19.30;65.30;;;;;;7841999;28;20245;-44
2022/03/04 05:31:44;;;;;;;9.85;6.53;;;19.30;65.20;;;;;;7842089;28;20531;-45
2022/03/04 05:35:29;;;;;;;11.00;6.40;;;19.30;65.20;;;;;;7841986;28;20182;-45
2022/03/04 05:39:15;;;;;;;10.45;6.90;;;19.30;65.20;;;;;;7841140;28;20244;-45
2022/03/04 05:43:00;;;;;;;13.35;6.40;;;19.30;65.00;;;;;;7841774;28;20532;-46
2022/03/04 05:46:46;;;;;;;23.73;6.80;;;19.30;64.70;;;;;;7860518;28;20205;-46
2022/03/04 05:50:31;;;;;;;12.38;6.35;;;19.30;65.00;;;;;;7872397;28;20181;-44
2022/03/04 05:54:17;;;;;;;14.65;6.55;;;19.30;65.20;;;;;;7873129;28;20201;-45
2022/03/04 05:58:03;;;;;;;17.38;6.68;;;19.40;65.90;;;;;;7871532;28;20180;-45
2022/03/04 06:01:48;;;;;;;13.50;5.70;;;19.50;66.20;;;;;;7870371;28;20205;-47
2022/03/04 06:05:34;;;;;;;18.13;7.30;;;19.50;66.50;;;;;;7872279;28;20197;-45
2022/03/04 06:09:21;;;;;;;12.07;6.43;;;19.50;66.50;;;;;;7871662;28;20173;-45
2022/03/04 06:13:07;;;;;;;12.48;6.63;;;19.50;66.80;;;;;;7872355;28;20212;-45
2022/03/04 06:16:52;;;;;;;12.65;6.28;;;19.50;66.70;;;;;;7871315;28;20181;-44
2022/03/04 06:20:38;;;;;;;11.77;6.90;;;19.40;66.80;;;;;;7871200;28;20211;-45
2022/03/04 06:24:23;;;;;;;18.13;7.18;;;19.40;67.00;;;;;;7871756;28;20215;-47
2022/03/04 06:28:09;;;;;;;11.52;6.63;;;19.40;67.00;;;;;;7871485;28;20835;-45
2022/03/04 06:31:55;;;;;;;14.15;6.63;;;19.40;67.00;;;;;;7871296;28;20205;-47
2022/03/04 06:35:41;;;;;;;11.88;7.10;;;19.40;67.00;;;;;;7871293;28;20202;-45
2022/03/04 06:39:27;;;;;;;12.30;6.70;;;19.40;67.00;;;;;;7870317;28;20196;-45
2022/03/04 06:43:13;;;;;;;12.20;6.25;;;19.30;66.40;;;;;;7871088;28;20197;-45
2022/03/04 06:46:59;;;;;;;11.40;6.65;;;19.30;66.70;;;;;;7870743;28;20251;-46
2022/03/04 06:50:45;;;;;;;13.02;6.03;;;19.30;66.50;;;;;;7870378;28;20252;-48
2022/03/04 06:54:32;;;;;;;14.73;5.85;;;19.20;66.30;;;;;;7871136;28;20169;-44
2022/03/04 06:58:18;;;;;;;17.48;6.72;;;19.20;66.40;;;;;;7843952;28;20192;-45
2022/03/04 07:02:06;;;;;;;20.63;6.00;;;19.20;66.70;;;;;;7845043;28;20743;-45
2022/03/04 07:05:51;;;;;;;16.88;6.95;;;19.20;66.70;;;;;;7839964;28;20213;-45
2022/03/04 07:09:37;;;;;;;11.48;5.78;;;19.20;66.70;;;;;;7838539;28;20186;-45
2022/03/04 07:13:24;;;;;;;14.63;7.25;;;19.20;66.70;;;;;;7839001;28;20206;-44
2022/03/04 07:17:10;;;;;;;9.40;6.22;;;19.20;66.70;;;;;;7838609;28;20185;-45
2022/03/04 07:20:57;;;;;;;12.00;6.63;;;19.30;66.90;;;;;;7838141;28;20209;-44
2022/03/04 07:24:42;;;;;;;11.35;6.70;;;19.20;66.70;;;;;;7865350;28;20227;-46
2022/03/04 07:28:27;;;;;;;9.90;5.78;;;19.30;66.80;;;;;;7869567;28;20215;-46
2022/03/04 07:32:13;;;;;;;9.93;6.00;;;19.30;66.80;;;;;;7869471;28;20678;-45
2022/03/04 07:35:59;;;;;;;10.93;6.25;;;19.30;66.80;;;;;;7869878;28;20173;-46
2022/03/04 07:39:44;;;;;;;10.45;6.55;;;19.30;66.70;;;;;;7868252;28;20186;-46
2022/03/04 07:43:30;;;;;;;10.68;6.60;;;19.30;66.70;;;;;;7869643;28;20197;-44
2022/03/04 07:47:15;;;;;;;11.25;6.38;;;19.40;65.60;;;;;;7869624;28;20216;-45
2022/03/04 07:51:01;;;;;;;15.27;6.88;;;19.40;66.00;;;;;;7867185;28;20254;-46
2022/03/04 07:54:46;;;;;;;8.82;6.43;;;19.50;64.00;;;;;;7869875;28;20177;-45
2022/03/04 07:58:32;;;;;;;10.60;6.93;;;19.40;63.50;;;;;;7869658;28;20203;-45
2022/03/04 08:02:17;;;;;;;20.05;6.22;;;19.50;63.30;;;;;;7868910;28;20749;-44
2022/03/04 08:06:03;;;;;;;13.30;6.25;;;19.60;63.40;;;;;;7869488;28;20262;-45
2022/03/04 08:09:48;;;;;;;14.07;7.00;;;19.60;62.80;;;;;;7869183;28;20537;-44
2022/03/04 08:13:36;;;;;;;14.02;7.10;;;19.60;62.20;;;;;;7869404;28;20750;-45
2022/03/04 08:17:21;;;;;;;13.10;7.75;;;19.70;61.90;;;;;;7869229;28;20173;-46
2022/03/04 08:21:08;;;;;;;11.57;6.97;;;19.80;61.70;;;;;;7868891;28;20246;-44
2022/03/04 08:24:53;;;;;;;9.75;6.32;;;19.80;61.30;;;;;;7868550;28;20191;-47
2022/03/04 08:28:39;;;;;;;11.68;7.13;;;19.90;61.80;;;;;;7868883;28;20174;-45
2022/03/04 08:32:24;;;;;;;13.05;6.80;;;20.00;61.70;;;;;;7868700;28;20595;-45
2022/03/04 08:36:11;;;;;;;14.52;6.80;;;20.10;61.40;;;;;;7868959;28;20513;-47
2022/03/04 08:39:56;;;;;;;11.75;7.05;;;20.20;61.10;;;;;;7865596;28;20238;-45
2022/03/04 08:43:42;;;;;;;12.38;6.55;;;20.30;61.00;;;;;;7867606;28;20228;-45
2022/03/04 08:47:28;;;;;;;11.38;7.07;;;20.40;61.00;;;;;;7868567;28;20209;-45
2022/03/04 08:51:13;;;;;;;14.35;7.25;;;20.50;60.50;;;;;;7868169;28;20193;-46
2022/03/04 08:54:59;;;;;;;10.23;6.35;;;20.60;60.10;;;;;;7868423;28;20265;-45
2022/03/04 08:58:44;;;;;;;13.80;6.70;;;20.80;60.00;;;;;;7868351;28;20252;-45
2022/03/04 09:02:30;;;;;;;10.98;6.38;;;20.90;59.80;;;;;;7866554;28;20354;-47
2022/03/04 09:06:15;;;;;;;9.48;6.05;;;21.00;59.60;;;;;;7868140;28;20676;-44
2022/03/04 09:10:01;;;;;;;8.35;5.93;;;21.00;59.40;;;;;;7867803;28;20216;-45
2022/03/04 09:13:47;;;;;;;8.65;6.38;;;21.20;59.60;;;;;;7867922;28;20655;-46
2022/03/04 09:17:32;;;;;;;9.13;5.95;;;21.20;59.20;;;;;;7868334;28;20244;-45
2022/03/04 09:21:18;;;;;;;7.65;6.18;;;21.30;59.10;;;;;;7866223;28;20201;-45
2022/03/04 09:25:04;;;;;;;11.70;6.88;;;21.30;58.90;;;;;;7866715;28;20211;-45
2022/03/04 09:28:49;;;;;;;10.13;6.72;;;21.30;58.80;;;;;;7837282;28;20174;-46
2022/03/04 09:32:35;;;;;;;8.15;6.25;;;21.30;58.70;;;;;;7836896;28;20208;-46
2022/03/04 09:36:20;;;;;;;9.25;6.57;;;21.30;58.60;;;;;;7840826;28;20186;-45
2022/03/04 09:40:08;;;;;;;8.15;6.20;;;21.30;58.70;;;;;;7841416;28;20182;-45
2022/03/04 09:43:54;;;;;;;8.57;7.13;;;21.40;58.70;;;;;;7841518;28;20194;-47
2022/03/04 09:47:43;;;;;;;11.75;7.40;;;21.40;58.50;;;;;;7842311;28;20213;-45
2022/03/04 09:51:28;;;;;;;9.45;6.70;;;21.30;58.60;;;;;;7855236;28;20222;-45
2022/03/04 09:55:14;;;;;;;10.05;6.90;;;21.30;58.70;;;;;;7870758;28;20177;-47
2022/03/04 09:58:59;;;;;;;8.63;6.32;;;21.30;58.60;;;;;;7842365;28;20327;-45
2022/03/04 10:02:45;;;;;;;10.68;6.57;;;21.30;59.50;;;;;;7842487;28;20244;-45
2022/03/04 10:06:30;;;;;;;7.43;5.97;;;21.20;59.60;;;;;;7841198;28;20206;-45
2022/03/04 10:10:19;;;;;;;8.98;5.45;;;21.30;60.10;;;;;;7841010;28;20209;-44
2022/03/04 10:14:07;;;;;;;12.82;6.75;;;21.30;61.30;;;;;;7840095;28;20202;-46
2022/03/04 10:18:02;;;;;;;10.55;6.75;;;21.30;59.80;;;;;;7838586;28;20196;-45
2022/03/04 10:21:53;;;;;;;11.60;6.85;;;21.30;59.40;;;;;;7855761;28;20300;-45
2022/03/04 10:25:42;;;;;;;12.85;7.53;;;21.20;59.20;;;;;;7840325;28;20292;-45
2022/03/04 10:29:30;;;;;;;9.70;7.05;;;21.20;59.20;;;;;;7840683;28;20244;-46
2022/03/04 10:33:21;;;;;;;10.10;7.05;;;21.20;59.00;;;;;;7842297;28;20702;-44
2022/03/04 10:37:07;;;;;;;11.13;7.00;;;21.20;58.90;;;;;;7840783;28;20279;-44
2022/03/04 10:40:53;;;;;;;11.32;7.50;;;21.20;58.90;;;;;;7839258;28;20198;-45
2022/03/04 10:44:38;;;;;;;12.52;7.75;;;21.20;58.80;;;;;;7839737;28;20178;-46
2022/03/04 10:48:24;;;;;;;9.85;7.10;;;21.20;59.40;;;;;;7839486;28;20220;-45
2022/03/04 10:52:09;;;;;;;19.98;7.97;;;21.20;59.20;;;;;;7840388;28;20198;-45
2022/03/04 10:56:05;;;;;;;11.93;7.85;;;21.20;59.50;;;;;;7840643;28;20668;-45
2022/03/04 10:59:58;;;;;;;13.68;7.90;;;21.20;59.30;;;;;;7855639;28;20207;-45
2022/03/04 11:03:43;;;;;;;12.02;8.20;;;21.20;59.30;;;;;;7862574;28;20218;-45
2022/03/04 11:07:29;;;;;;;16.75;8.90;;;21.20;59.50;;;;;;7839499;28;20282;-45
2022/03/04 11:11:15;;;;;;;15.05;8.70;;;21.20;59.30;;;;;;7839163;28;20243;-45
2022/03/04 11:15:01;;;;;;;13.93;8.70;;;21.30;59.60;;;;;;7839577;28;20174;-45
2022/03/04 11:18:47;;;;;;;11.40;8.00;;;21.20;59.50;;;;;;7839394;28;20174;-44
2022/03/04 11:22:34;;;;;;;17.63;8.82;;;21.20;60.00;;;;;;7837314;28;20197;-48
2022/03/04 11:26:21;;;;;;;20.48;10.65;;;21.20;59.80;;;;;;7838397;28;20238;-46
2022/03/04 11:30:07;;;;;;;14.70;9.27;;;21.20;58.30;;;;;;7839049;28;20287;-45
2022/03/04 11:34:02;;;;;;;19.75;10.57;;;21.10;58.50;;;;;;7838996;28;20209;-45
2022/03/04 11:37:51;;;;;;;17.10;9.77;;;21.10;58.90;;;;;;7838705;28;20675;-45
2022/03/04 11:41:47;;;;;;;21.75;14.65;;;21.20;59.30;;;;;;7837453;28;20201;-46
2022/03/04 11:45:33;;;;;;;28.10;10.93;;;21.10;55.20;;;;;;7837834;28;20624;-45
2022/03/04 11:49:38;;;;;;;24.58;10.65;;;20.80;57.60;;;;;;7838243;28;20185;-44
2022/03/04 11:53:25;;;;;;;21.50;11.45;;;20.80;58.70;;;;;;7838577;28;20717;-47
2022/03/04 11:57:26;;;;;;;15.75;8.80;;;20.90;59.10;;;;;;7838378;28;20178;-45
2022/03/04 12:01:16;;;;;;;18.75;8.93;;;21.10;59.80;;;;;;7836360;28;20624;-47
2022/03/04 12:05:21;;;;;;;17.45;9.25;;;21.30;61.40;;;;;;7837302;28;20178;-45
2022/03/04 12:09:30;;;;;;;18.85;8.13;;;21.40;62.50;;;;;;7837999;28;20178;-47
2022/03/04 12:13:24;;;;;;;13.65;7.57;;;21.60;62.70;;;;;;7837946;28;20252;-46
2022/03/04 12:17:10;;;;;;;17.77;7.93;;;21.80;62.80;;;;;;7838129;28;20174;-45
2022/03/04 12:20:55;;;;;;;13.13;7.63;;;21.90;62.90;;;;;;7834144;28;20240;-45
2022/03/04 12:24:59;;;;;;;17.05;8.52;;;22.00;63.00;;;;;;7837022;28;20186;-45
2022/03/04 12:28:50;;;;;;;13.93;7.75;;;22.10;63.00;;;;;;7837924;28;20214;-44
2022/03/04 12:32:51;;;;;;;17.35;7.57;;;22.30;62.40;;;;;;7837666;28;20212;-47
2022/03/04 12:36:36;;;;;;;16.95;6.45;;;22.30;63.10;;;;;;7837943;28;20178;-45
2022/03/04 12:40:22;;;;;;;14.00;7.20;;;22.40;62.80;;;;;;7836861;28;20189;-45
2022/03/04 12:44:09;;;;;;;16.75;6.80;;;22.50;63.00;;;;;;7839125;28;20193;-45
2022/03/04 12:47:56;;;;;;;14.93;6.70;;;22.60;63.20;;;;;;7855349;28;20213;-45
2022/03/04 12:51:44;;;;;;;18.42;7.10;;;22.60;63.10;;;;;;7843658;28;20198;-46
2022/03/04 12:55:35;;;;;;;12.20;5.80;;;22.60;63.20;;;;;;7837704;28;20208;-45
2022/03/04 12:59:21;;;;;;;16.30;6.00;;;22.70;63.10;;;;;;7837202;28;20182;-45
2022/03/04 13:03:22;;;;;;;11.45;5.57;;;22.70;63.00;;;;;;7835680;28;20725;-46
2022/03/04 13:07:07;;;;;;;11.70;5.82;;;22.70;63.20;;;;;;7836669;28;20296;-45
2022/03/04 13:10:54;;;;;;;9.95;5.93;;;22.80;63.20;;;;;;7870639;28;20212;-45
2022/03/04 13:14:40;;;;;;;14.23;5.80;;;22.80;63.30;;;;;;7864020;28;20181;-45
2022/03/04 13:18:25;;;;;;;11.13;5.60;;;22.80;63.40;;;;;;7861357;28;20178;-45
2022/03/04 13:22:16;;;;;;;13.70;5.20;;;22.80;63.40;;;;;;7841537;28;20309;-45
2022/03/04 13:26:11;;;;;;;9.52;5.68;;;22.80;63.40;;;;;;7855313;28;20201;-47
2022/03/04 13:29:59;;;;;;;11.73;5.57;;;22.80;63.50;;;;;;7849677;28;20323;-47
2022/03/04 13:33:44;;;;;;;10.48;5.40;;;22.80;63.40;;;;;;7845461;28;20217;-47
2022/03/04 13:37:38;;;;;;;9.23;5.07;;;22.80;63.40;;;;;;7840641;28;20253;-48
2022/03/04 13:41:24;;;;;;;10.30;5.03;;;22.80;63.50;;;;;;7840908;28;20210;-45
2022/03/04 13:45:11;;;;;;;9.15;5.50;;;22.80;63.50;;;;;;7840970;28;20178;-46
2022/03/04 13:49:02;;;;;;;9.43;5.07;;;22.80;63.60;;;;;;7841606;28;20173;-45
2022/03/04 13:52:50;;;;;;;8.00;4.63;;;22.80;64.40;;;;;;7857112;28;20236;-45
2022/03/04 13:56:40;;;;;;;6.93;5.35;;;22.80;63.40;;;;;;7872949;28;20203;-45
2022/03/04 14:00:33;;;;;;;14.18;5.35;;;22.80;63.50;;;;;;7864183;28;20815;-45
2022/03/04 14:04:22;;;;;;;8.90;4.97;;;22.70;63.60;;;;;;7857804;28;20205;-45
2022/03/04 14:08:11;;;;;;;10.20;4.85;;;22.80;63.60;;;;;;7850387;28;20213;-45
2022/03/04 14:11:57;;;;;;;7.50;4.57;;;22.80;63.60;;;;;;7840330;28;20698;-45
2022/03/04 14:15:44;;;;;;;10.30;4.60;;;22.70;63.70;;;;;;7859883;28;20584;-45
2022/03/04 14:19:30;;;;;;;11.02;5.03;;;22.70;63.80;;;;;;7840436;28;20213;-45
2022/03/04 14:23:15;;;;;;;9.02;4.68;;;22.70;63.90;;;;;;7869023;28;20201;-45
2022/03/04 14:27:01;;;;;;;7.70;4.68;;;22.70;64.10;;;;;;7871132;28;20217;-45
2022/03/04 14:30:47;;;;;;;10.05;4.55;;;22.70;64.10;;;;;;7871504;28;20185;-45
2022/03/04 14:34:32;;;;;;;15.77;5.22;;;22.70;64.30;;;;;;7858748;28;20178;-47
2022/03/04 14:38:19;;;;;;;13.30;5.90;;;22.70;64.10;;;;;;7848312;28;20280;-45
2022/03/04 14:42:04;;;;;;;7.43;4.53;;;22.60;64.20;;;;;;7868315;28;20209;-45
2022/03/04 14:45:51;;;;;;;7.03;4.15;;;22.60;64.50;;;;;;7866132;28;20674;-45
2022/03/04 14:49:37;;;;;;;7.78;4.95;;;22.60;64.50;;;;;;7871298;28;20177;-45
2022/03/04 14:53:22;;;;;;;8.88;4.57;;;22.60;65.50;;;;;;7871551;28;20185;-45
2022/03/04 14:57:11;;;;;;;6.18;4.43;;;22.60;64.60;;;;;;7846579;28;20251;-45
2022/03/04 15:00:57;;;;;;;9.73;4.53;;;22.60;64.60;;;;;;7839528;28;20205;-48
2022/03/04 15:04:42;;;;;;;6.43;4.38;;;22.50;64.50;;;;;;7838189;28;20204;-46
2022/03/04 15:08:28;;;;;;;6.30;4.50;;;22.50;64.60;;;;;;7850509;28;20213;-46
2022/03/04 15:12:13;;;;;;;10.95;4.10;;;22.50;64.60;;;;;;7840977;28;20247;-46
2022/03/04 15:15:59;;;;;;;10.77;5.30;;;22.40;64.30;;;;;;7839536;28;20652;-46
2022/03/04 15:19:44;;;;;;;12.30;6.30;;;22.40;64.40;;;;;;7837447;28;20186;-46
2022/03/04 15:23:30;;;;;;;10.80;5.90;;;22.30;62.50;;;;;;7859484;28;20220;-47
2022/03/04 15:27:15;;;;;;;10.13;5.25;;;22.30;63.70;;;;;;7870462;28;20618;-45
2022/03/04 15:31:01;;;;;;;13.63;6.38;;;22.30;63.90;;;;;;7868843;28;20197;-45
2022/03/04 15:34:47;;;;;;;11.43;6.05;;;22.20;63.10;;;;;;7870036;28;20178;-46
2022/03/04 15:38:33;;;;;;;14.25;4.88;;;22.20;63.70;;;;;;7871854;28;20181;-46
2022/03/04 15:42:18;;;;;;;9.82;5.35;;;22.30;63.60;;;;;;7872145;28;20628;-46
2022/03/04 15:46:04;;;;;;;11.13;5.40;;;22.30;63.70;;;;;;7869972;28;20611;-45
2022/03/04 15:49:50;;;;;;;11.35;5.50;;;22.40;63.90;;;;;;7869560;28;20789;-45
2022/03/04 15:53:36;;;;;;;8.77;5.10;;;22.50;63.80;;;;;;7869901;28;20213;-45
2022/03/04 15:57:21;;;;;;;8.63;5.05;;;22.70;63.80;;;;;;7869725;28;20181;-45
2022/03/04 16:01:07;;;;;;;8.85;5.03;;;22.70;63.50;;;;;;7869249;28;20217;-46
2022/03/04 16:04:52;;;;;;;7.35;4.80;;;22.90;63.50;;;;;;7869767;28;20181;-45
2022/03/04 16:08:38;;;;;;;7.25;4.13;;;22.90;63.20;;;;;;7869572;28;20201;-45
2022/03/04 16:12:24;;;;;;;8.70;4.75;;;23.00;63.10;;;;;;7869385;28;20662;-45
2022/03/04 16:16:12;;;;;;;7.80;4.95;;;23.00;63.10;;;;;;7869587;28;20185;-46
2022/03/04 16:19:58;;;;;;;7.65;4.68;;;23.10;63.00;;;;;;7869285;28;20264;-45
2022/03/04 16:23:43;;;;;;;6.03;4.38;;;23.10;63.00;;;;;;7869434;28;20193;-45
2022/03/04 16:27:29;;;;;;;7.38;4.60;;;23.20;63.10;;;;;;7869462;28;20215;-45
2022/03/04 16:31:15;;;;;;;9.63;4.68;;;23.20;63.00;;;;;;7869169;28;20282;-46
2022/03/04 16:35:01;;;;;;;7.45;4.85;;;23.20;63.00;;;;;;7869463;28;20540;-45
2022/03/04 16:38:47;;;;;;;7.40;5.00;;;23.10;62.90;;;;;;7849996;28;20199;-45
2022/03/04 16:42:33;;;;;;;7.07;4.50;;;23.10;62.90;;;;;;7838072;28;20298;-45
2022/03/04 16:46:18;;;;;;;6.65;4.80;;;23.20;63.00;;;;;;7842294;28;20202;-46
2022/03/04 16:50:04;;;;;;;9.35;4.22;;;23.10;62.80;;;;;;7843892;28;20189;-46
2022/03/04 16:53:50;;;;;;;5.72;4.40;;;23.10;62.80;;;;;;7843924;28;20198;-45
2022/03/04 16:57:36;;;;;;;7.20;4.65;;;23.10;62.80;;;;;;7843795;28;20182;-46
2022/03/04 17:01:22;;;;;;;5.45;4.38;;;23.00;62.80;;;;;;7843403;28;20718;-46
2022/03/04 17:05:10;;;;;;;7.75;4.55;;;23.00;62.80;;;;;;7843712;28;20273;-45
2022/03/04 17:08:55;;;;;;;7.93;4.63;;;23.00;62.70;;;;;;7842630;28;20192;-46
2022/03/04 17:12:41;;;;;;;7.50;4.30;;;23.00;62.70;;;;;;7843088;28;20197;-46
2022/03/04 17:16:27;;;;;;;6.18;4.55;;;23.00;62.60;;;;;;7843294;28;20641;-46
2022/03/04 17:20:12;;;;;;;7.38;4.80;;;22.90;62.50;;;;;;7842970;28;20190;-46
2022/03/04 17:23:58;;;;;;;6.00;4.68;;;22.90;62.50;;;;;;7843052;28;20210;-45
2022/03/04 17:27:44;;;;;;;6.20;5.00;;;22.90;62.20;;;;;;7843472;28;20209;-45
2022/03/04 17:31:29;;;;;;;6.38;4.72;;;22.90;62.20;;;;;;7842630;28;20198;-45
2022/03/04 17:35:15;;;;;;;7.03;4.78;;;22.80;62.10;;;;;;7842830;28;20177;-46
2022/03/04 17:39:00;;;;;;;7.82;5.20;;;22.80;62.10;;;;;;7842694;28;20185;-46
2022/03/04 17:42:46;;;;;;;6.75;5.03;;;22.80;61.80;;;;;;7842146;28;20198;-46
2022/03/04 17:46:31;;;;;;;6.82;5.13;;;22.70;61.80;;;;;;7847300;28;20223;-46
2022/03/04 17:50:17;;;;;;;16.85;5.03;;;22.70;61.00;;;;;;7873199;28;20264;-46
2022/03/04 17:54:04;;;;;;;15.15;5.40;;;22.70;61.50;;;;;;7873168;28;20224;-45
2022/03/04 17:57:49;;;;;;;18.88;5.47;;;22.60;60.80;;;;;;7873292;28;20267;-45
2022/03/04 18:01:35;;;;;;;17.60;5.93;;;22.60;61.50;;;;;;7863466;28;20217;-45
2022/03/04 18:05:20;;;;;;;14.43;5.20;;;22.60;61.30;;;;;;7841849;28;20583;-45
2022/03/04 18:09:06;;;;;;;13.00;5.78;;;22.60;61.80;;;;;;7841587;28;20174;-45
2022/03/04 18:12:57;;;;;;;17.77;5.35;;;22.70;62.00;;;;;;7841621;28;20198;-45
2022/03/04 18:16:42;;;;;;;14.00;4.80;;;22.70;62.00;;;;;;7841733;28;20183;-48
2022/03/04 18:20:28;;;;;;;18.35;7.22;;;22.80;61.90;;;;;;7841285;28;20182;-46
2022/03/04 18:24:13;;;;;;;38.88;6.45;;;22.80;60.30;;;;;;7841359;28;20206;-45
2022/03/04 18:27:59;;;;;;;24.48;6.40;;;22.80;61.00;;;;;;7841228;28;20205;-45
2022/03/04 18:31:45;;;;;;;40.97;7.57;;;22.90;61.40;;;;;;7840963;28;20574;-45
2022/03/04 18:35:31;;;;;;;24.63;6.78;;;23.00;61.40;;;;;;7841280;28;20174;-46
2022/03/04 18:43:20;;;;;;;24.80;7.22;;;23.20;61.20;;;;;;7859341;28;20205;-46
2022/03/04 18:47:06;;;;;;;26.00;7.00;;;23.30;61.20;;;;;;7840629;28;20259;-46
2022/03/04 18:50:52;;;;;;;32.95;6.60;;;23.40;61.50;;;;;;7843106;28;20235;-46
2022/03/04 18:54:37;;;;;;;25.92;6.43;;;23.40;62.80;;;;;;7839224;28;20185;-46
2022/03/04 18:58:23;;;;;;;30.95;6.28;;;23.40;63.70;;;;;;7842541;28;20690;-45
2022/03/04 19:02:08;;;;;;;23.05;6.57;;;23.40;63.70;;;;;;7839666;28;20222;-45
2022/03/04 19:05:53;;;;;;;27.92;6.57;;;23.40;64.20;;;;;;7839946;28;20710;-46
2022/03/04 19:09:39;;;;;;;19.27;5.93;;;23.40;64.30;;;;;;7870158;28;20184;-44
2022/03/04 19:13:25;;;;;;;25.75;7.20;;;23.40;64.60;;;;;;7870742;28;20267;-51
2022/03/04 19:17:12;;;;;;;39.83;6.63;;;23.40;64.80;;;;;;7867852;28;20197;-46
2022/03/04 19:20:57;;;;;;;17.13;6.57;;;23.40;64.60;;;;;;7839224;28;20209;-45
2022/03/04 19:24:43;;;;;;;17.73;5.93;;;23.30;64.40;;;;;;7839146;28;20235;-45
2022/03/04 19:28:28;;;;;;;14.20;5.78;;;23.20;64.30;;;;;;7838872;28;20245;-45
2022/03/04 19:32:14;;;;;;;15.23;5.10;;;23.20;64.30;;;;;;7855916;28;20241;-46